Time;durP1;ratioP1;P1;durP2;ratioP2;P2;SDS_P1;SDS_P2;PMS_P1;PMS_P2;Temp;Humidity;BMP_temperature;BMP_pressure;BME280_temperature;BME280_humidity;BME280_pressure;Samples;Min_cycle;Max_cycle;Signal;HPM_P1;HPM_P2
2023/05/19 00:01:17;;;;;;;3.38;2.00;;;13.40;96.40;;;;;;7917630;28;20271;-89
2023/05/19 00:05:04;;;;;;;4.07;2.60;;;13.40;96.90;;;;;;7914889;28;20203;-89
2023/05/19 00:08:58;;;;;;;2.55;1.98;;;13.40;97.40;;;;;;7933995;28;20184;-89
2023/05/19 00:12:44;;;;;;;3.42;2.25;;;13.30;97.60;;;;;;7913170;28;20784;-88
2023/05/19 00:16:30;;;;;;;2.78;2.30;;;13.30;97.70;;;;;;7909625;28;20761;-89
2023/05/19 00:20:16;;;;;;;2.70;2.30;;;13.20;97.70;;;;;;7935234;28;20168;-89
2023/05/19 00:24:02;;;;;;;3.75;2.38;;;13.20;97.80;;;;;;7912464;28;20207;-89
2023/05/19 00:27:48;;;;;;;4.72;2.28;;;13.10;97.70;;;;;;7915231;28;20627;-89
2023/05/19 00:31:33;;;;;;;3.25;2.50;;;13.10;97.40;;;;;;7934012;28;20199;-89
2023/05/19 00:35:19;;;;;;;3.33;2.33;;;13.00;97.10;;;;;;7913578;28;20208;-89
2023/05/19 00:39:05;;;;;;;3.25;2.50;;;12.90;97.30;;;;;;7915004;28;20176;-89
2023/05/19 00:42:50;;;;;;;4.97;2.53;;;12.90;97.30;;;;;;7933540;28;20195;-89
2023/05/19 00:46:36;;;;;;;3.15;2.65;;;12.90;97.20;;;;;;7924782;28;20219;-89
2023/05/19 00:50:23;;;;;;;6.13;2.80;;;12.80;97.40;;;;;;7908999;28;20695;-89
2023/05/19 00:54:09;;;;;;;4.23;2.77;;;12.80;97.60;;;;;;7914256;28;20195;-88
2023/05/19 00:57:58;;;;;;;4.57;2.40;;;12.70;97.50;;;;;;7925920;28;20211;-89
2023/05/19 01:01:47;;;;;;;8.00;2.63;;;12.70;97.50;;;;;;7910074;28;20184;-89
2023/05/19 01:05:33;;;;;;;3.57;2.53;;;12.70;98.00;;;;;;7913117;28;20677;-89
2023/05/19 01:09:22;;;;;;;4.40;2.70;;;12.70;98.00;;;;;;7911008;28;20744;-89
2023/05/19 01:13:08;;;;;;;6.13;3.00;;;12.60;98.20;;;;;;7913936;28;20259;-89
2023/05/19 01:17:06;;;;;;;5.27;2.63;;;12.60;98.50;;;;;;7926967;28;20568;-90
2023/05/19 01:21:22;;;;;;;5.27;2.80;;;12.60;98.60;;;;;;7929954;28;20176;-88
2023/05/19 01:25:31;;;;;;;4.15;2.60;;;12.60;98.70;;;;;;7932759;28;20199;-89
2023/05/19 01:29:22;;;;;;;3.80;2.50;;;12.50;99.10;;;;;;7907921;28;20538;-89
2023/05/19 01:33:13;;;;;;;4.30;3.00;;;12.50;99.40;;;;;;7913368;28;20172;-89
2023/05/19 01:37:00;;;;;;;4.60;2.80;;;12.40;99.60;;;;;;7930712;28;20183;-89
2023/05/19 01:40:46;;;;;;;4.13;2.70;;;12.40;99.60;;;;;;7925475;28;20192;-89
2023/05/19 01:44:32;;;;;;;3.37;2.67;;;12.30;99.70;;;;;;7909317;28;20212;-89
2023/05/19 01:48:18;;;;;;;4.20;2.83;;;12.30;99.90;;;;;;7911499;28;20236;-89
2023/05/19 01:52:06;;;;;;;5.00;2.80;;;12.20;99.90;;;;;;7930339;28;20637;-89
2023/05/19 01:55:53;;;;;;;4.07;2.50;;;12.20;99.90;;;;;;7912643;28;20199;-89
2023/05/19 01:59:55;;;;;;;3.30;2.53;;;12.20;99.90;;;;;;7910694;28;20192;-90
2023/05/19 02:04:17;;;;;;;5.90;2.70;;;12.10;99.90;;;;;;7910959;28;20207;-89
2023/05/19 02:08:25;;;;;;;3.10;2.80;;;12.10;99.90;;;;;;7910465;28;20171;-89
2023/05/19 02:12:31;;;;;;;3.87;2.70;;;12.00;99.90;;;;;;7902267;28;20541;-89
2023/05/19 02:16:17;;;;;;;3.10;2.70;;;12.00;99.90;;;;;;7912541;28;20598;-89
2023/05/19 02:20:03;;;;;;;4.30;2.80;;;11.90;99.90;;;;;;7911412;28;20176;-89
2023/05/19 02:23:49;;;;;;;5.07;2.87;;;11.90;99.90;;;;;;7896114;28;20216;-89
2023/05/19 02:27:37;;;;;;;3.97;2.83;;;11.90;99.90;;;;;;7912232;28;20533;-89
2023/05/19 02:31:22;;;;;;;3.93;2.87;;;11.90;99.90;;;;;;7911414;28;20179;-89
2023/05/19 02:35:08;;;;;;;2.83;2.40;;;11.80;99.90;;;;;;7908482;28;20231;-89
2023/05/19 02:38:54;;;;;;;3.27;2.40;;;11.80;99.90;;;;;;7929367;28;20176;-89
2023/05/19 02:42:40;;;;;;;4.13;2.97;;;11.80;99.90;;;;;;7902515;28;20276;-89
2023/05/19 02:46:25;;;;;;;2.87;2.53;;;11.80;99.90;;;;;;7910003;28;20257;-88
2023/05/19 02:50:11;;;;;;;3.20;2.80;;;11.70;99.90;;;;;;7912502;28;20175;-89
2023/05/19 02:53:57;;;;;;;7.20;3.20;;;11.70;99.90;;;;;;7924655;28;20283;-89
2023/05/19 02:57:42;;;;;;;3.57;2.70;;;11.70;99.90;;;;;;7911177;28;20176;-89
2023/05/19 03:01:28;;;;;;;5.33;3.00;;;11.70;99.90;;;;;;7928713;28;20184;-88
2023/05/19 03:05:14;;;;;;;4.30;2.73;;;11.60;99.90;;;;;;7905862;28;20744;-89
2023/05/19 03:08:59;;;;;;;5.13;2.70;;;11.60;99.90;;;;;;7918150;28;20164;-90
2023/05/19 03:12:45;;;;;;;6.83;2.73;;;11.50;99.90;;;;;;7926721;28;20187;-89
2023/05/19 03:16:31;;;;;;;7.07;2.87;;;11.50;99.90;;;;;;7916956;28;20200;-89
2023/05/19 03:20:17;;;;;;;5.03;3.00;;;11.50;99.90;;;;;;7911616;28;20176;-89
2023/05/19 03:24:03;;;;;;;3.83;3.00;;;11.40;99.90;;;;;;7911444;28;20234;-89
2023/05/19 03:27:48;;;;;;;5.07;2.90;;;11.40;99.90;;;;;;7910241;28;20176;-89
2023/05/19 03:31:34;;;;;;;5.47;3.10;;;11.40;99.90;;;;;;7912420;28;20172;-89
2023/05/19 03:35:20;;;;;;;5.73;3.30;;;11.40;99.90;;;;;;7926567;28;20207;-89
2023/05/19 03:39:05;;;;;;;3.60;2.90;;;11.40;99.90;;;;;;7901637;28;20176;-89
2023/05/19 03:42:53;;;;;;;5.00;3.10;;;11.40;99.90;;;;;;7929140;28;20348;-89
2023/05/19 03:46:38;;;;;;;6.83;3.00;;;11.30;99.90;;;;;;7910322;28;20627;-89
2023/05/19 03:50:26;;;;;;;4.20;2.83;;;11.30;99.90;;;;;;7915724;28;20267;-89
2023/05/19 03:54:11;;;;;;;5.73;3.10;;;11.30;99.90;;;;;;7916047;28;20227;-89
2023/05/19 03:57:57;;;;;;;6.50;2.90;;;11.30;99.90;;;;;;7912237;28;20180;-89
2023/05/19 04:01:43;;;;;;;5.20;2.93;;;11.30;99.90;;;;;;7892202;28;20645;-89
2023/05/19 04:05:28;;;;;;;4.10;2.90;;;11.30;99.90;;;;;;7900570;28;20208;-89
2023/05/19 04:09:14;;;;;;;4.90;2.83;;;11.30;99.90;;;;;;7883194;28;20184;-89
2023/05/19 04:13:00;;;;;;;4.63;2.93;;;11.30;99.90;;;;;;7901795;28;20165;-89
2023/05/19 04:16:46;;;;;;;5.83;3.37;;;11.30;99.90;;;;;;7882124;28;20677;-89
2023/05/19 04:20:31;;;;;;;7.87;2.90;;;11.30;99.90;;;;;;7884128;28;20180;-89
2023/05/19 04:24:17;;;;;;;5.27;3.60;;;11.30;99.90;;;;;;7898506;28;20208;-88
2023/05/19 04:28:03;;;;;;;5.17;3.30;;;11.20;99.90;;;;;;7904328;28;20177;-89
2023/05/19 04:31:48;;;;;;;5.13;2.97;;;11.30;99.90;;;;;;7884927;28;20255;-89
2023/05/19 04:35:34;;;;;;;4.20;3.00;;;11.20;99.90;;;;;;7884831;28;20196;-89
2023/05/19 04:39:20;;;;;;;6.40;3.23;;;11.20;99.90;;;;;;7886779;28;20184;-89
2023/05/19 04:43:06;;;;;;;4.70;3.23;;;11.20;99.90;;;;;;7885047;28;20211;-89
2023/05/19 04:46:52;;;;;;;4.63;3.07;;;11.20;99.90;;;;;;7900613;28;20220;-88
2023/05/19 04:50:40;;;;;;;5.07;3.20;;;11.20;99.90;;;;;;7905161;28;20634;-88
2023/05/19 04:54:26;;;;;;;5.50;2.90;;;11.20;99.90;;;;;;7916318;28;20823;-89
2023/05/19 04:58:12;;;;;;;5.60;3.30;;;11.20;99.90;;;;;;7915563;28;20210;-89
2023/05/19 05:01:57;;;;;;;4.60;2.60;;;11.30;99.90;;;;;;7932600;28;20229;-89
2023/05/19 05:05:43;;;;;;;3.70;2.90;;;11.30;99.90;;;;;;7915508;28;20207;-88
2023/05/19 05:09:29;;;;;;;4.60;3.23;;;11.30;99.90;;;;;;7915648;28;20179;-88
2023/05/19 05:13:14;;;;;;;5.30;3.20;;;11.30;99.90;;;;;;7916814;28;20275;-88
2023/05/19 05:17:01;;;;;;;5.03;3.40;;;11.30;99.90;;;;;;7915111;28;20192;-88
2023/05/19 05:20:48;;;;;;;5.83;3.40;;;11.30;99.90;;;;;;7915739;28;20779;-89
2023/05/19 05:24:34;;;;;;;6.00;2.93;;;11.30;99.90;;;;;;7900829;28;20224;-88
2023/05/19 05:28:19;;;;;;;6.80;3.67;;;11.40;99.90;;;;;;7890885;28;20172;-90
2023/05/19 05:32:06;;;;;;;6.97;3.80;;;11.40;99.90;;;;;;7934479;28;20184;-88
2023/05/19 05:35:52;;;;;;;7.70;4.10;;;11.40;99.90;;;;;;7915572;28;20203;-88
2023/05/19 05:39:37;;;;;;;6.03;3.77;;;11.30;99.90;;;;;;7917751;28;20191;-88
2023/05/19 05:43:23;;;;;;;7.33;3.80;;;11.30;99.90;;;;;;7922905;28;20180;-88
2023/05/19 05:47:10;;;;;;;6.33;3.43;;;11.30;99.90;;;;;;7932917;28;20204;-88
2023/05/19 05:50:58;;;;;;;8.70;4.23;;;11.30;99.90;;;;;;7914169;28;20271;-88
2023/05/19 05:54:43;;;;;;;6.57;4.10;;;11.40;99.90;;;;;;7914792;28;20221;-89
2023/05/19 05:58:31;;;;;;;5.77;3.73;;;11.40;99.90;;;;;;7931719;28;20178;-84
2023/05/19 06:02:17;;;;;;;7.67;4.43;;;11.40;99.90;;;;;;7932394;28;20232;-83
2023/05/19 06:06:03;;;;;;;6.60;4.30;;;11.50;99.90;;;;;;7929669;28;20208;-82
2023/05/19 07:12:39;;;;;;;6.37;5.33;;;11.90;99.90;;;;;;9499147;22;1482658;-80
2023/05/19 07:16:25;;;;;;;9.43;5.40;;;13.30;99.90;;;;;;9474835;23;20259;-90
2023/05/19 07:20:11;;;;;;;7.63;4.83;;;13.40;99.90;;;;;;9467150;23;20180;-88
2023/05/19 07:23:56;;;;;;;8.30;5.27;;;13.50;99.90;;;;;;9467976;23;20191;-89
2023/05/19 07:27:42;;;;;;;6.10;4.57;;;13.60;99.90;;;;;;9465158;23;20160;-90
2023/05/19 07:31:27;;;;;;;7.73;4.43;;;13.80;99.90;;;;;;9465767;23;20167;-89
2023/05/19 07:35:13;;;;;;;14.23;4.40;;;14.00;99.90;;;;;;9465616;23;20180;-89
2023/05/19 07:38:59;;;;;;;5.83;3.80;;;14.20;99.90;;;;;;9466062;23;20180;-89
2023/05/19 07:42:44;;;;;;;7.73;3.80;;;14.30;99.90;;;;;;9465944;23;20227;-89
2023/05/19 07:46:30;;;;;;;6.07;3.70;;;14.40;99.90;;;;;;9466175;23;20550;-89
2023/05/19 07:50:16;;;;;;;7.23;4.00;;;14.40;99.90;;;;;;9466960;23;20504;-90
2023/05/19 07:54:01;;;;;;;8.90;4.20;;;14.50;99.90;;;;;;9465659;23;20231;-89
2023/05/19 07:57:50;;;;;;;7.30;4.40;;;14.40;99.30;;;;;;9464864;23;20164;-89
2023/05/19 08:01:36;;;;;;;6.60;4.10;;;14.30;99.80;;;;;;9464829;23;20195;-89
2023/05/19 08:05:22;;;;;;;9.73;3.93;;;14.40;99.90;;;;;;9465583;23;20539;-89
2023/05/19 08:09:08;;;;;;;11.90;4.50;;;14.50;99.90;;;;;;9469450;23;20223;-89
2023/05/19 08:12:54;;;;;;;9.50;4.20;;;14.60;99.90;;;;;;9486458;23;20710;-89
2023/05/19 08:16:41;;;;;;;12.17;4.60;;;14.70;99.50;;;;;;9476023;23;20187;-89
2023/05/19 08:20:27;;;;;;;6.40;4.43;;;14.80;99.90;;;;;;9477179;23;20530;-89
2023/05/19 08:24:13;;;;;;;10.80;4.83;;;14.80;99.80;;;;;;9475785;23;20449;-89
2023/05/19 08:27:58;;;;;;;11.07;4.87;;;14.80;99.90;;;;;;9475224;23;20223;-89
2023/05/19 08:31:44;;;;;;;6.97;4.10;;;14.90;99.70;;;;;;9476175;23;20592;-90
2023/05/19 08:35:30;;;;;;;10.03;4.70;;;15.10;99.90;;;;;;9475866;23;20194;-89
2023/05/19 08:39:17;;;;;;;8.63;4.35;;;15.20;99.90;;;;;;9476005;23;20211;-89
2023/05/19 08:43:03;;;;;;;7.97;4.25;;;15.30;99.40;;;;;;9477377;23;20164;-89
2023/05/19 08:46:53;;;;;;;9.23;4.93;;;15.30;98.80;;;;;;9502704;23;20175;-88
2023/05/19 08:50:42;;;;;;;14.85;3.58;;;15.50;99.10;;;;;;9478297;23;20160;-90
2023/05/19 08:54:37;;;;;;;8.15;3.58;;;15.90;97.30;;;;;;9477168;23;20180;-90
2023/05/19 08:58:22;;;;;;;3.83;3.03;;;16.30;96.70;;;;;;9478194;23;20284;-90
2023/05/19 09:02:11;;;;;;;7.53;2.67;;;16.50;94.60;;;;;;9504207;23;20616;-86
2023/05/19 09:05:57;;;;;;;6.40;2.88;;;16.70;92.70;;;;;;9483145;23;20180;-82
2023/05/19 09:09:43;;;;;;;4.35;2.70;;;16.90;91.70;;;;;;9508912;23;20210;-91
2023/05/19 09:13:29;;;;;;;4.85;2.60;;;17.10;90.80;;;;;;9478284;23;20279;-82
2023/05/19 09:17:15;;;;;;;4.38;2.80;;;17.30;90.80;;;;;;9477555;23;20156;-90
2023/05/19 09:21:01;;;;;;;4.50;2.70;;;17.40;89.50;;;;;;9477789;23;20183;-85
2023/05/19 09:24:47;;;;;;;4.60;2.95;;;17.40;88.70;;;;;;9477128;23;20184;-89
2023/05/19 09:28:35;;;;;;;5.97;3.20;;;17.40;89.50;;;;;;9477811;23;20183;-89
2023/05/19 09:32:34;;;;;;;5.65;3.15;;;17.40;88.60;;;;;;9476852;23;20156;-89
2023/05/19 09:36:20;;;;;;;7.25;3.53;;;17.40;88.20;;;;;;9477482;23;20531;-88
2023/05/19 09:40:08;;;;;;;6.35;3.45;;;17.30;88.20;;;;;;9477630;23;20214;-89
2023/05/19 09:43:57;;;;;;;11.60;3.90;;;17.30;89.20;;;;;;9477670;23;20255;-89
2023/05/19 09:47:49;;;;;;;14.18;3.60;;;17.40;89.60;;;;;;9476511;23;20187;-89
2023/05/19 09:51:36;;;;;;;6.18;3.30;;;17.60;88.70;;;;;;9503572;23;20147;-85
2023/05/19 09:55:34;;;;;;;6.43;3.55;;;17.60;88.10;;;;;;9478023;23;20180;-90
2023/05/19 09:59:29;;;;;;;5.68;3.20;;;17.70;88.50;;;;;;9476487;23;20179;-89
2023/05/19 10:03:16;;;;;;;5.05;3.28;;;17.90;88.60;;;;;;9476558;23;20147;-90
2023/05/19 10:07:04;;;;;;;4.32;3.40;;;17.80;87.10;;;;;;9475401;23;20148;-88
2023/05/19 10:10:50;;;;;;;4.25;2.67;;;17.90;87.70;;;;;;9477311;23;20586;-90
2023/05/19 10:14:37;;;;;;;5.15;3.28;;;17.90;88.90;;;;;;9476479;23;20183;-90
2023/05/19 10:18:25;;;;;;;4.97;3.00;;;18.00;89.00;;;;;;9477055;23;20158;-89
2023/05/19 10:22:21;;;;;;;5.32;3.17;;;18.00;87.80;;;;;;9477097;23;20211;-89
2023/05/19 10:26:25;;;;;;;5.90;3.58;;;18.10;88.60;;;;;;9501143;23;20218;-89
2023/05/19 10:30:28;;;;;;;5.72;2.83;;;18.20;87.80;;;;;;9501860;23;20152;-89
2023/05/19 10:34:25;;;;;;;13.50;3.33;;;18.30;86.50;;;;;;9475771;23;20234;-89
2023/05/19 10:38:39;;;;;;;6.15;3.30;;;18.20;87.70;;;;;;9476422;23;20218;-89
2023/05/19 10:43:03;;;;;;;8.65;3.50;;;18.10;87.10;;;;;;9485175;23;20179;-90
2023/05/19 10:46:48;;;;;;;8.73;3.00;;;18.10;88.00;;;;;;9471910;23;20190;-89
2023/05/19 10:50:38;;;;;;;6.68;3.13;;;18.10;87.80;;;;;;9477688;23;20160;-90
2023/05/19 10:54:42;;;;;;;4.53;3.25;;;18.20;88.00;;;;;;9502983;23;20168;-89
2023/05/19 10:58:45;;;;;;;5.25;3.28;;;18.20;87.00;;;;;;9477662;23;20166;-90
2023/05/19 11:02:43;;;;;;;4.07;2.92;;;18.30;89.40;;;;;;9478060;23;20243;-89
2023/05/19 11:06:40;;;;;;;5.03;2.85;;;18.30;86.90;;;;;;9477121;23;20187;-89
2023/05/19 11:10:25;;;;;;;4.63;2.72;;;18.20;87.20;;;;;;9477196;23;20225;-89
2023/05/19 11:14:14;;;;;;;4.80;2.50;;;18.00;87.50;;;;;;9476971;23;20187;-89
2023/05/19 11:18:03;;;;;;;4.78;2.90;;;18.20;88.10;;;;;;9476687;23;20184;-90
2023/05/19 11:21:56;;;;;;;5.05;2.80;;;18.30;87.00;;;;;;9476814;23;20694;-89
2023/05/19 11:25:46;;;;;;;6.07;3.20;;;18.30;87.40;;;;;;9476904;23;20210;-89
2023/05/19 11:29:31;;;;;;;4.35;3.15;;;18.40;87.20;;;;;;9478025;23;20152;-89
2023/05/19 11:33:20;;;;;;;7.25;3.03;;;18.50;87.40;;;;;;9478034;23;20164;-89
2023/05/19 11:37:10;;;;;;;5.22;3.00;;;18.40;86.30;;;;;;9478117;23;20157;-90
2023/05/19 11:40:56;;;;;;;4.85;2.83;;;18.40;86.40;;;;;;9477558;23;20668;-90
2023/05/19 11:44:46;;;;;;;5.07;3.80;;;18.30;86.40;;;;;;9503927;23;20529;-89
2023/05/19 11:48:32;;;;;;;5.72;3.20;;;18.40;87.30;;;;;;9479778;23;20211;-90
2023/05/19 11:52:21;;;;;;;9.10;3.70;;;18.60;87.50;;;;;;9505677;23;20160;-89
2023/05/19 11:56:06;;;;;;;4.63;3.08;;;18.50;86.00;;;;;;9479366;23;20183;-89
2023/05/19 12:00:01;;;;;;;6.35;3.35;;;18.40;86.80;;;;;;9505064;23;20199;-90
2023/05/19 12:03:48;;;;;;;8.82;3.28;;;18.40;86.90;;;;;;9505693;23;20164;-90
2023/05/19 12:07:35;;;;;;;9.02;3.63;;;18.50;87.40;;;;;;9479113;23;20160;-90
2023/05/19 12:11:23;;;;;;;6.95;3.95;;;18.50;87.40;;;;;;9479418;23;20263;-85
2023/05/19 12:15:09;;;;;;;8.18;3.75;;;18.60;88.30;;;;;;9477856;23;20266;-85
2023/05/19 12:18:55;;;;;;;9.18;4.25;;;18.70;88.40;;;;;;9477707;23;20235;-85
2023/05/19 12:22:41;;;;;;;7.10;3.97;;;18.70;86.90;;;;;;9479519;23;20865;-92
2023/05/19 12:26:27;;;;;;;8.23;4.15;;;18.70;87.50;;;;;;9478591;23;20180;-89
2023/05/19 12:30:12;;;;;;;11.60;4.03;;;18.70;88.40;;;;;;9478774;23;20166;-89
2023/05/19 12:33:58;;;;;;;5.70;3.55;;;18.80;87.90;;;;;;9480987;23;20184;-84
2023/05/19 12:37:44;;;;;;;7.68;4.43;;;18.80;87.70;;;;;;9478019;23;20148;-87
2023/05/19 12:41:31;;;;;;;6.10;4.15;;;18.90;87.40;;;;;;9476285;23;20425;-88
2023/05/19 12:45:21;;;;;;;7.97;4.60;;;19.00;87.60;;;;;;9502944;23;20529;-87
2023/05/19 12:49:06;;;;;;;7.18;4.55;;;18.90;87.10;;;;;;9479153;23;20160;-88
2023/05/19 12:52:54;;;;;;;8.05;4.10;;;19.00;88.00;;;;;;9479137;23;20164;-87
2023/05/19 12:56:49;;;;;;;7.25;4.63;;;19.00;87.70;;;;;;9479078;23;20550;-87
2023/05/19 13:00:40;;;;;;;9.73;4.75;;;18.90;86.20;;;;;;9481000;23;20634;-88
2023/05/19 13:04:27;;;;;;;5.95;4.13;;;18.90;86.90;;;;;;9478416;23;20640;-87
2023/05/19 13:08:18;;;;;;;6.90;4.35;;;18.90;87.90;;;;;;9477848;23;20152;-88
2023/05/19 13:12:05;;;;;;;8.18;5.35;;;18.90;86.80;;;;;;9479883;23;20176;-88
2023/05/19 13:15:51;;;;;;;9.00;4.47;;;19.00;87.90;;;;;;9517546;23;20207;-88
2023/05/19 13:19:36;;;;;;;6.63;4.38;;;19.00;86.70;;;;;;9482108;23;20184;-88
2023/05/19 13:23:22;;;;;;;29.33;5.15;;;19.00;86.20;;;;;;9479926;23;20153;-86
2023/05/19 13:27:16;;;;;;;7.18;4.25;;;19.10;86.30;;;;;;9506528;23;20398;-90
2023/05/19 13:31:02;;;;;;;10.15;4.57;;;19.00;86.40;;;;;;9476424;23;20269;-89
2023/05/19 13:34:47;;;;;;;7.43;4.85;;;19.00;87.10;;;;;;9478008;23;20627;-88
2023/05/19 13:38:33;;;;;;;7.82;4.70;;;19.00;85.90;;;;;;9477968;23;20596;-89
2023/05/19 13:42:18;;;;;;;7.22;4.50;;;19.00;87.30;;;;;;9478507;23;20407;-91
2023/05/19 13:46:04;;;;;;;9.90;6.00;;;19.00;87.00;;;;;;9479250;23;20844;-88
2023/05/19 13:49:51;;;;;;;8.07;5.45;;;19.00;86.20;;;;;;9480828;23;20159;-89
2023/05/19 13:53:37;;;;;;;9.30;5.43;;;19.10;87.00;;;;;;9481173;23;20183;-90
2023/05/19 13:57:24;;;;;;;9.15;6.10;;;19.20;87.30;;;;;;9479742;23;20160;-90
2023/05/19 14:01:09;;;;;;;11.82;6.20;;;19.20;87.20;;;;;;9479609;23;20180;-90
2023/05/19 14:04:55;;;;;;;11.95;7.07;;;19.20;86.90;;;;;;9479398;23;20516;-90
2023/05/19 14:08:41;;;;;;;11.95;7.22;;;19.30;87.30;;;;;;9478776;23;20655;-90
2023/05/19 14:12:28;;;;;;;9.65;6.60;;;19.30;87.70;;;;;;9479314;23;20180;-91
2023/05/19 14:16:13;;;;;;;14.70;6.97;;;19.30;87.70;;;;;;9505258;23;20195;-91
2023/05/19 14:19:59;;;;;;;7.38;5.72;;;19.30;88.00;;;;;;9478667;23;20187;-86
2023/05/19 14:23:45;;;;;;;6.63;5.35;;;19.30;88.00;;;;;;9476622;23;20186;-88
2023/05/19 14:27:30;;;;;;;8.57;5.47;;;19.30;87.20;;;;;;9475900;23;20152;-88
2023/05/19 14:31:16;;;;;;;6.80;4.50;;;19.20;86.50;;;;;;9476454;23;20164;-89
2023/05/19 14:35:02;;;;;;;8.18;4.93;;;19.20;87.30;;;;;;9476666;23;20179;-88
2023/05/19 14:38:48;;;;;;;10.90;4.47;;;19.20;87.80;;;;;;9475765;23;20164;-88
2023/05/19 14:42:33;;;;;;;5.63;4.47;;;19.20;87.80;;;;;;9476475;23;20857;-88
2023/05/19 14:46:19;;;;;;;16.63;4.25;;;19.20;87.20;;;;;;9475454;23;20176;-88
2023/05/19 14:50:05;;;;;;;8.90;4.50;;;19.20;88.10;;;;;;9475735;23;20164;-88
2023/05/19 14:53:50;;;;;;;8.07;4.43;;;19.20;87.90;;;;;;9476822;23;20184;-87
2023/05/19 14:57:36;;;;;;;6.85;3.90;;;19.20;87.80;;;;;;9473790;23;20164;-89
2023/05/19 15:01:22;;;;;;;8.43;4.18;;;19.20;87.60;;;;;;9478731;23;20269;-89
2023/05/19 15:05:08;;;;;;;9.98;3.80;;;19.10;88.20;;;;;;9477426;23;20183;-88
2023/05/19 15:08:53;;;;;;;7.25;4.07;;;19.00;88.80;;;;;;9476943;23;20159;-87
2023/05/19 15:12:39;;;;;;;6.25;4.07;;;19.10;89.00;;;;;;9473727;23;20456;-89
2023/05/19 15:16:25;;;;;;;6.32;3.78;;;19.00;88.50;;;;;;9472892;23;20583;-89
2023/05/19 15:20:11;;;;;;;8.45;4.65;;;19.10;89.00;;;;;;9500607;23;20175;-89
2023/05/19 15:23:56;;;;;;;6.75;4.32;;;19.00;88.30;;;;;;9479075;23;20214;-89
2023/05/19 15:27:42;;;;;;;6.25;4.45;;;19.00;89.00;;;;;;9503157;23;20149;-89
2023/05/19 15:31:28;;;;;;;8.30;5.20;;;18.90;88.80;;;;;;9478259;23;20181;-89
2023/05/19 15:35:13;;;;;;;8.93;5.68;;;18.90;88.90;;;;;;9477934;23;20548;-88
2023/05/19 15:38:59;;;;;;;7.88;4.90;;;18.80;88.50;;;;;;9502219;23;20176;-88
2023/05/19 15:42:44;;;;;;;12.23;5.57;;;18.80;89.30;;;;;;9479400;23;20160;-89
2023/05/19 15:46:30;;;;;;;10.88;5.45;;;18.80;89.40;;;;;;9480287;23;20180;-89
2023/05/19 15:50:16;;;;;;;12.45;5.97;;;18.80;89.20;;;;;;9489071;23;20164;-88
2023/05/19 15:54:01;;;;;;;7.75;5.35;;;18.80;89.20;;;;;;9477699;23;20262;-88
2023/05/19 15:57:47;;;;;;;8.95;5.28;;;18.80;88.60;;;;;;9476464;23;20167;-89
2023/05/19 16:01:33;;;;;;;8.68;5.25;;;18.70;89.20;;;;;;9476263;23;20225;-88
2023/05/19 16:05:18;;;;;;;10.75;5.95;;;18.60;89.80;;;;;;9477458;23;20179;-88
2023/05/19 16:09:04;;;;;;;10.57;5.97;;;18.70;90.00;;;;;;9502887;23;20611;-89
2023/05/19 16:12:50;;;;;;;9.85;5.70;;;18.60;89.70;;;;;;9475985;23;20172;-88
2023/05/19 16:16:35;;;;;;;10.43;7.43;;;18.60;90.00;;;;;;9477277;23;20187;-88
2023/05/19 16:20:25;;;;;;;8.63;5.95;;;18.60;89.80;;;;;;9477698;23;20183;-88
2023/05/19 16:24:11;;;;;;;6.63;4.70;;;18.60;90.10;;;;;;9475727;23;20176;-88
2023/05/19 16:27:56;;;;;;;7.40;5.13;;;18.50;90.10;;;;;;9477137;23;20577;-88
2023/05/19 16:31:42;;;;;;;8.02;4.60;;;18.40;90.00;;;;;;9502094;23;20597;-89
2023/05/19 16:35:28;;;;;;;5.63;4.32;;;18.30;90.10;;;;;;9476392;23;20658;-89
2023/05/19 16:39:14;;;;;;;6.07;4.95;;;18.30;90.20;;;;;;9475611;23;20180;-88
2023/05/19 16:43:00;;;;;;;10.77;5.47;;;18.20;89.90;;;;;;9476780;23;20156;-88
2023/05/19 16:46:45;;;;;;;6.35;4.65;;;18.10;90.30;;;;;;9476113;23;20187;-88
2023/05/19 16:50:31;;;;;;;6.28;4.32;;;18.10;90.40;;;;;;9502528;23;20481;-88
2023/05/19 16:54:16;;;;;;;7.53;5.15;;;18.10;90.40;;;;;;9475505;23;20209;-89
2023/05/19 16:58:02;;;;;;;7.85;4.68;;;18.10;90.30;;;;;;9476674;23;20541;-88
2023/05/19 17:01:48;;;;;;;5.63;4.22;;;18.10;90.50;;;;;;9474900;23;20575;-88
2023/05/19 17:05:35;;;;;;;5.60;4.28;;;18.10;90.70;;;;;;9475345;23;20765;-88
2023/05/19 17:09:23;;;;;;;5.82;4.20;;;18.00;90.50;;;;;;9473743;23;20160;-88
2023/05/19 17:13:10;;;;;;;7.32;4.25;;;18.00;90.50;;;;;;9475638;23;20175;-88
2023/05/19 17:16:55;;;;;;;6.55;4.60;;;17.90;90.50;;;;;;9475075;23;20184;-88
2023/05/19 17:20:41;;;;;;;6.47;4.13;;;17.90;90.80;;;;;;9502513;23;20168;-89
2023/05/19 17:24:32;;;;;;;6.57;4.10;;;17.90;90.90;;;;;;9477055;23;20183;-88
2023/05/19 17:28:17;;;;;;;6.22;4.00;;;17.90;90.90;;;;;;9502251;23;20139;-88
2023/05/19 17:32:03;;;;;;;8.40;4.43;;;17.80;91.30;;;;;;9476359;23;20160;-89
2023/05/19 17:35:48;;;;;;;6.90;4.40;;;17.90;91.30;;;;;;9474731;23;20211;-88
2023/05/19 17:39:34;;;;;;;8.48;4.28;;;17.90;91.50;;;;;;9501466;23;20226;-88
2023/05/19 17:43:20;;;;;;;9.25;4.85;;;17.80;91.00;;;;;;9500655;23;20180;-88
2023/05/19 17:47:06;;;;;;;5.18;4.15;;;17.70;91.20;;;;;;9500929;23;20156;-89
2023/05/19 17:50:52;;;;;;;6.75;3.92;;;17.70;91.50;;;;;;9475927;23;20163;-88
2023/05/19 17:54:38;;;;;;;6.32;4.53;;;17.60;91.80;;;;;;9500475;23;20184;-88
2023/05/19 17:58:24;;;;;;;7.03;4.15;;;17.70;91.80;;;;;;9475127;23;20175;-88
2023/05/19 18:02:10;;;;;;;7.97;4.10;;;17.60;92.00;;;;;;9475566;23;20183;-88
2023/05/19 18:05:57;;;;;;;8.07;5.55;;;17.60;92.10;;;;;;9475557;23;20184;-88
2023/05/19 18:09:46;;;;;;;8.20;6.15;;;17.60;92.20;;;;;;9476083;23;20250;-88
2023/05/19 18:13:32;;;;;;;10.63;7.00;;;17.50;92.10;;;;;;9477431;23;20206;-88
2023/05/19 18:17:19;;;;;;;7.95;6.43;;;17.50;92.60;;;;;;9508799;23;20155;-88
2023/05/19 18:21:05;;;;;;;9.80;6.18;;;17.50;92.60;;;;;;9511526;23;20240;-88
2023/05/19 18:24:50;;;;;;;7.97;6.13;;;17.50;92.40;;;;;;9498746;23;20227;-83
2023/05/19 18:28:36;;;;;;;8.95;6.45;;;17.50;92.50;;;;;;9474685;23;20152;-87
2023/05/19 18:32:22;;;;;;;10.70;6.68;;;17.40;92.70;;;;;;9475958;23;20160;-87
2023/05/19 18:36:07;;;;;;;7.95;5.72;;;17.30;92.80;;;;;;9475751;23;20325;-87
2023/05/19 18:39:55;;;;;;;7.25;5.50;;;17.20;92.70;;;;;;9473104;23;20716;-88
2023/05/19 18:43:41;;;;;;;7.22;5.28;;;17.20;93.10;;;;;;9474718;23;20183;-87
2023/05/19 18:47:26;;;;;;;9.30;6.40;;;17.10;93.20;;;;;;9475114;23;20179;-88
2023/05/19 18:51:14;;;;;;;10.40;6.18;;;17.00;93.10;;;;;;9475314;23;20159;-87
2023/05/19 18:55:01;;;;;;;6.50;5.13;;;17.00;93.40;;;;;;9474279;23;20180;-88
2023/05/19 18:58:46;;;;;;;9.27;6.13;;;16.90;93.90;;;;;;9474250;23;20163;-86
2023/05/19 19:02:32;;;;;;;6.68;5.55;;;16.90;93.70;;;;;;9475077;23;20195;-88
2023/05/19 19:06:22;;;;;;;8.75;5.22;;;16.80;94.20;;;;;;9474860;23;20191;-86
2023/05/19 19:10:08;;;;;;;8.48;5.63;;;16.90;94.50;;;;;;9473731;23;20195;-87
2023/05/19 19:13:55;;;;;;;8.68;6.38;;;16.90;94.80;;;;;;9501533;23;20258;-88
2023/05/19 19:17:41;;;;;;;8.30;5.88;;;16.90;94.80;;;;;;9474033;23;20733;-87
2023/05/19 19:21:28;;;;;;;11.32;6.60;;;16.90;95.10;;;;;;9475537;23;20767;-87
2023/05/19 19:25:19;;;;;;;9.43;6.72;;;16.90;94.80;;;;;;9480572;23;20187;-87
2023/05/19 19:29:06;;;;;;;11.50;6.95;;;16.90;95.10;;;;;;9476135;23;20156;-88
2023/05/19 19:32:53;;;;;;;10.25;7.07;;;16.80;95.60;;;;;;9477881;23;20156;-88
2023/05/19 19:36:39;;;;;;;12.32;8.55;;;16.80;95.60;;;;;;9473741;23;20191;-86
2023/05/19 19:40:24;;;;;;;11.50;7.97;;;16.70;95.30;;;;;;9474368;23;20184;-89
2023/05/19 19:44:10;;;;;;;10.20;7.38;;;16.70;95.80;;;;;;9473874;23;20203;-88
2023/05/19 19:47:56;;;;;;;13.35;8.77;;;16.60;96.00;;;;;;9474286;23;20156;-88
2023/05/19 19:51:41;;;;;;;12.95;7.90;;;16.60;96.00;;;;;;9474758;23;20197;-88
2023/05/19 19:55:29;;;;;;;10.02;7.43;;;16.50;96.60;;;;;;9474922;23;20180;-87
2023/05/19 19:59:15;;;;;;;13.50;8.80;;;16.50;96.60;;;;;;9473789;23;20238;-87
2023/05/19 20:03:00;;;;;;;10.10;8.18;;;16.50;96.70;;;;;;9500117;23;20160;-88
2023/05/19 20:06:46;;;;;;;13.05;8.73;;;16.50;97.00;;;;;;9474444;23;20175;-87
2023/05/19 20:10:31;;;;;;;13.23;9.65;;;16.40;97.00;;;;;;9474175;23;20179;-87
2023/05/19 20:14:19;;;;;;;11.57;8.55;;;16.40;97.00;;;;;;9476815;23;20702;-88
2023/05/19 20:18:05;;;;;;;14.68;8.88;;;16.40;97.30;;;;;;9477109;23;20156;-87
2023/05/19 20:21:50;;;;;;;13.07;8.88;;;16.40;97.40;;;;;;9476604;23;20179;-87
2023/05/19 20:25:40;;;;;;;12.75;8.30;;;16.40;97.80;;;;;;9503388;23;20255;-87
2023/05/19 20:29:26;;;;;;;12.95;9.50;;;16.40;97.70;;;;;;9501945;23;20219;-88
2023/05/19 20:33:13;;;;;;;12.35;9.18;;;16.30;97.70;;;;;;9477237;23;20508;-88
2023/05/19 20:36:58;;;;;;;14.25;10.00;;;16.30;98.00;;;;;;9476912;23;20167;-87
2023/05/19 20:40:44;;;;;;;12.50;8.48;;;16.20;98.00;;;;;;9477115;23;20180;-88
2023/05/19 20:44:30;;;;;;;12.73;9.45;;;16.20;98.40;;;;;;9477453;23;20187;-88